Time;durP1;ratioP1;P1;durP2;ratioP2;P2;SDS_P1;SDS_P2;PMS_P1;PMS_P2;Temp;Humidity;BMP_temperature;BMP_pressure;BME280_temperature;BME280_humidity;BME280_pressure;Samples;Min_cycle;Max_cycle;Signal;HPM_P1;HPM_P2
2022/12/23 00:00:42;;;;;;;1.63;1.00;;;;;;;10.48;87.97;94850.47;5892070;24;20211;-91
2022/12/23 00:07:48;;;;;;;;;;;;;;;;;;;;;
2022/12/23 01:06:52;;;;;;;;;;;;;;;;;;;;;
2022/12/23 01:20:28;;;;;;;;;;;;;;;;;;;;;
2022/12/23 02:29:04;;;;;;;2.33;0.90;;;;;;;9.65;100.00;94731.44;5935442;23;20251;-91
2022/12/23 03:31:13;;;;;;;1.80;0.80;;;;;;;10.38;100.00;94759.00;5802526;24;20775;-90
2022/12/23 04:02:31;;;;;;;0.40;0.40;;;;;;;10.66;100.00;94788.94;5890928;24;20201;-90
2022/12/23 04:51:23;;;;;;;1.60;0.50;;;;;;;10.90;100.00;94821.84;5918269;24;20267;-90
2022/12/23 04:55:10;;;;;;;0.73;0.50;;;;;;;10.88;100.00;94820.44;5936296;24;20638;-91
2022/12/23 04:58:45;;;;;;;0.50;0.50;;;;;;;10.84;100.00;94814.09;5809199;24;20202;-90
2022/12/23 05:25:10;;;;;;;0.57;0.57;;;;;;;10.95;100.00;94821.25;5880805;24;20253;-84
2022/12/23 05:27:37;;;;;;;0.40;0.40;;;;;;;10.96;100.00;94826.22;5951377;24;20316;-84
2022/12/23 05:30:03;;;;;;;0.40;0.40;;;;;;;11.04;100.00;94832.94;6005194;23;20580;-84
2022/12/23 05:32:30;;;;;;;0.60;0.50;;;;;;;11.07;100.00;94833.34;6069149;23;20181;-83
2022/12/23 05:34:56;;;;;;;0.50;0.50;;;;;;;11.04;100.00;94838.88;6068871;23;20185;-84
2022/12/23 05:37:23;;;;;;;0.63;0.40;;;;;;;11.09;100.00;94830.56;6068054;23;20201;-84
2022/12/23 05:39:49;;;;;;;0.60;0.60;;;;;;;11.08;100.00;94840.09;6067708;23;20248;-83
2022/12/23 05:42:18;;;;;;;1.33;0.70;;;;;;;11.11;100.00;94827.81;6068978;23;20181;-84
2022/12/23 05:44:44;;;;;;;0.50;0.50;;;;;;;11.14;100.00;94841.09;6067719;23;20559;-83
2022/12/23 05:47:11;;;;;;;0.93;0.50;;;;;;;11.14;100.00;94833.34;6064730;23;20177;-84
2022/12/23 05:49:37;;;;;;;0.50;0.50;;;;;;;11.17;100.00;94834.72;6065278;23;20201;-83
2022/12/23 05:52:04;;;;;;;0.50;0.50;;;;;;;11.19;100.00;94843.84;6067942;23;20165;-84
2022/12/23 05:54:30;;;;;;;0.57;0.50;;;;;;;11.19;100.00;94841.25;6068705;23;20669;-83
2022/12/23 05:56:57;;;;;;;0.43;0.43;;;;;;;11.21;100.00;94847.00;6068146;23;20181;-83
2022/12/23 05:59:25;;;;;;;0.83;0.50;;;;;;;11.26;100.00;94849.78;6068437;23;20200;-84
2022/12/23 06:01:51;;;;;;;0.80;0.50;;;;;;;11.25;100.00;94848.22;6069354;23;20181;-84
2022/12/23 06:04:17;;;;;;;1.63;0.70;;;;;;;11.23;100.00;94841.66;6070189;23;20500;-84
2022/12/23 06:06:44;;;;;;;0.70;0.60;;;;;;;11.26;100.00;94847.22;6068302;23;20184;-84
2022/12/23 06:09:10;;;;;;;0.60;0.60;;;;;;;11.26;100.00;94854.94;6067563;23;20205;-83
2022/12/23 06:11:37;;;;;;;2.00;0.60;;;;;;;11.28;100.00;94850.41;6067871;23;20187;-84
2022/12/23 06:14:05;;;;;;;0.47;0.47;;;;;;;11.34;100.00;94857.34;6067996;23;20185;-83
2022/12/23 06:16:32;;;;;;;0.50;0.50;;;;;;;11.36;100.00;94865.63;6069134;23;20205;-84
2022/12/23 06:18:59;;;;;;;0.60;0.60;;;;;;;11.36;100.00;94870.00;6066953;23;20260;-83
2022/12/23 06:21:25;;;;;;;0.50;0.50;;;;;;;11.34;100.00;94867.66;6081804;23;20188;-83
2022/12/23 06:23:52;;;;;;;0.73;0.47;;;;;;;11.40;100.00;94860.88;6096529;23;20187;-83
2022/12/23 06:26:18;;;;;;;0.90;0.50;;;;;;;11.45;100.00;94868.03;6095558;23;20653;-83
2022/12/23 06:28:45;;;;;;;0.50;0.50;;;;;;;11.50;100.00;94866.44;6096727;23;20184;-83
2022/12/23 06:31:11;;;;;;;0.50;0.50;;;;;;;11.47;100.00;94884.09;6096826;23;20199;-83
2022/12/23 06:33:39;;;;;;;0.97;0.50;;;;;;;11.48;100.00;94876.16;6096302;23;20176;-83
2022/12/23 06:36:06;;;;;;;1.37;0.73;;;;;;;11.47;100.00;94887.47;6097021;23;20558;-84
2022/12/23 06:38:33;;;;;;;0.50;0.50;;;;;;;11.51;100.00;94885.28;6095234;23;20521;-84
2022/12/23 06:41:00;;;;;;;0.50;0.50;;;;;;;11.52;100.00;94897.19;6096982;23;20476;-83
2022/12/23 06:43:26;;;;;;;0.50;0.50;;;;;;;11.43;100.00;94897.38;6097032;23;20184;-83
2022/12/23 06:45:53;;;;;;;0.70;0.60;;;;;;;11.46;100.00;94900.56;6096893;23;20191;-84
2022/12/23 06:48:20;;;;;;;0.67;0.60;;;;;;;11.54;100.00;94902.94;6096860;23;20203;-83
2022/12/23 06:50:47;;;;;;;0.60;0.53;;;;;;;11.60;100.00;94910.66;6096406;23;20200;-84
2022/12/23 06:53:14;;;;;;;0.50;0.50;;;;;;;11.60;100.00;94913.22;6096918;23;20199;-84
2022/12/23 06:55:40;;;;;;;0.40;0.40;;;;;;;11.57;100.00;94905.88;6096208;23;20176;-83
2022/12/23 06:58:07;;;;;;;0.50;0.50;;;;;;;11.63;100.00;94927.50;6095715;23;20231;-84
2022/12/23 07:00:33;;;;;;;0.40;0.40;;;;;;;11.65;100.00;94928.91;6095607;23;20200;-83
2022/12/23 07:02:59;;;;;;;0.70;0.50;;;;;;;11.65;100.00;94923.75;6096055;23;20176;-83
2022/12/23 07:05:26;;;;;;;1.33;0.50;;;;;;;11.64;100.00;94924.75;6096723;23;20179;-83
2022/12/23 07:07:54;;;;;;;0.50;0.50;;;;;;;11.69;100.00;94937.03;6094537;23;20172;-84
2022/12/23 07:10:20;;;;;;;0.60;0.60;;;;;;;11.68;100.00;94948.34;6096193;23;20200;-82
2022/12/23 07:12:46;;;;;;;1.13;0.70;;;;;;;11.75;100.00;94939.59;6095943;23;20180;-83
2022/12/23 07:15:13;;;;;;;0.47;0.47;;;;;;;11.80;100.00;94940.81;6095640;23;20191;-83
2022/12/23 07:17:39;;;;;;;0.53;0.53;;;;;;;11.83;100.00;94940.44;6095062;23;20678;-83
2022/12/23 07:20:07;;;;;;;0.63;0.60;;;;;;;11.82;100.00;94941.41;6096060;23;20208;-83
2022/12/23 07:22:33;;;;;;;0.60;0.60;;;;;;;11.77;100.00;94945.38;6066604;23;20189;-85
2022/12/23 07:25:01;;;;;;;0.50;0.50;;;;;;;11.76;100.00;94946.38;6068201;23;20181;-83
2022/12/23 07:27:27;;;;;;;0.53;0.53;;;;;;;11.71;100.00;94956.47;6067970;23;20181;-84
2022/12/23 07:29:54;;;;;;;0.83;0.63;;;;;;;11.74;100.00;94961.22;6067448;23;20219;-83
2022/12/23 07:32:20;;;;;;;0.67;0.67;;;;;;;11.74;100.00;94963.78;6068375;23;20188;-84
2022/12/23 07:34:47;;;;;;;0.60;0.60;;;;;;;11.80;100.00;94949.34;6068294;23;20180;-84
2022/12/23 07:37:13;;;;;;;0.53;0.53;;;;;;;11.76;100.00;94963.63;6067282;23;20634;-84
2022/12/23 07:39:39;;;;;;;2.47;0.93;;;;;;;11.75;100.00;94962.81;6066500;23;20215;-84
2022/12/23 07:42:07;;;;;;;0.57;0.53;;;;;;;11.78;100.00;94959.06;6067030;23;20180;-84
2022/12/23 07:44:33;;;;;;;0.50;0.50;;;;;;;11.78;100.00;94966.81;6066564;23;20184;-84
2022/12/23 07:47:00;;;;;;;0.60;0.60;;;;;;;11.78;100.00;94969.38;6067613;23;20181;-84
2022/12/23 07:49:26;;;;;;;0.60;0.60;;;;;;;11.75;100.00;94977.50;6066481;23;20196;-84
2022/12/23 07:51:53;;;;;;;0.77;0.60;;;;;;;11.76;100.00;94966.22;6066263;23;20177;-84
2022/12/23 07:54:19;;;;;;;0.60;0.60;;;;;;;11.75;100.00;94969.75;6067437;23;20261;-83
2022/12/23 07:56:45;;;;;;;2.00;0.83;;;;;;;11.75;100.00;94982.66;6066477;23;20173;-84
2022/12/23 07:59:13;;;;;;;0.60;0.60;;;;;;;11.70;100.00;94975.53;6066652;23;20272;-83
2022/12/23 08:01:39;;;;;;;0.50;0.50;;;;;;;11.79;100.00;94976.13;6067472;23;20184;-83
2022/12/23 08:04:06;;;;;;;0.50;0.50;;;;;;;11.85;100.00;94972.78;6067506;23;20641;-84
2022/12/23 08:06:35;;;;;;;1.63;0.60;;;;;;;11.78;100.00;94987.44;6067267;23;20229;-84
2022/12/23 08:09:01;;;;;;;0.57;0.53;;;;;;;11.77;100.00;94981.50;6066225;23;20460;-84
2022/12/23 08:11:27;;;;;;;1.37;0.53;;;;;;;11.75;100.00;94978.28;6067284;23;20225;-82
2022/12/23 08:13:54;;;;;;;2.20;0.70;;;;;;;11.80;100.00;94987.25;6066305;23;20838;-83
2022/12/23 08:16:21;;;;;;;0.97;0.67;;;;;;;11.76;100.00;94982.47;6067711;23;20181;-83
2022/12/23 08:18:48;;;;;;;1.40;0.60;;;;;;;11.76;100.00;94984.25;6065938;23;20196;-83
2022/12/23 08:21:17;;;;;;;1.63;0.57;;;;;;;11.70;100.00;94987.63;6078515;23;20713;-83
2022/12/23 08:23:45;;;;;;;0.50;0.50;;;;;;;11.68;100.00;94982.66;6095776;23;20208;-83
2022/12/23 08:26:14;;;;;;;0.53;0.53;;;;;;;11.72;100.00;94980.50;6096182;23;20408;-84
2022/12/23 08:28:42;;;;;;;0.60;0.60;;;;;;;11.73;100.00;94977.72;6094544;23;20177;-84
2022/12/23 08:31:11;;;;;;;0.50;0.50;;;;;;;11.80;100.00;94984.66;6094999;23;20200;-84
2022/12/23 08:33:40;;;;;;;1.70;0.60;;;;;;;11.80;100.00;94971.78;6095438;23;20173;-84
2022/12/23 08:36:08;;;;;;;0.67;0.67;;;;;;;11.79;100.00;94976.13;6095102;23;20184;-83
2022/12/23 08:38:36;;;;;;;1.80;0.50;;;;;;;11.79;100.00;94980.50;6095423;23;20226;-84
2022/12/23 08:41:02;;;;;;;0.60;0.60;;;;;;;11.84;100.00;94978.91;6095853;23;20744;-84
2022/12/23 08:43:29;;;;;;;0.77;0.57;;;;;;;11.84;100.00;94978.91;6095985;23;20176;-84
2022/12/23 08:45:55;;;;;;;0.40;0.40;;;;;;;11.95;100.00;94964.63;6096081;23;20231;-84
2022/12/23 08:48:21;;;;;;;0.60;0.60;;;;;;;12.01;100.00;94971.56;6096766;23;20177;-84
2022/12/23 08:50:49;;;;;;;0.50;0.50;;;;;;;12.04;100.00;94964.22;6096730;23;20192;-84
2022/12/23 08:53:15;;;;;;;0.50;0.50;;;;;;;12.20;100.00;94969.94;6098444;23;20183;-84
2022/12/23 08:55:44;;;;;;;0.47;0.47;;;;;;;12.30;100.00;94981.47;6098460;23;20183;-84
2022/12/23 08:58:11;;;;;;;0.50;0.50;;;;;;;12.34;100.00;94985.22;6097991;23;20184;-83
2022/12/23 09:00:38;;;;;;;0.50;0.50;;;;;;;12.34;100.00;94998.13;6098406;23;20196;-84
2022/12/23 09:03:05;;;;;;;0.60;0.60;;;;;;;12.26;100.00;95003.50;6098260;23;20180;-84
2022/12/23 09:05:32;;;;;;;0.67;0.57;;;;;;;12.22;100.00;95022.16;6097929;23;20596;-84
2022/12/23 09:08:00;;;;;;;0.50;0.50;;;;;;;12.19;100.00;95027.72;6098384;23;20231;-84
2022/12/23 09:10:26;;;;;;;0.63;0.60;;;;;;;12.19;100.00;95023.34;6098204;23;20242;-85
2022/12/23 09:12:53;;;;;;;1.27;0.50;;;;;;;12.18;100.00;95029.50;6097578;23;20190;-84
2022/12/23 09:15:19;;;;;;;0.60;0.60;;;;;;;12.16;100.00;95028.91;6098851;23;20183;-83
2022/12/23 09:17:45;;;;;;;0.97;0.63;;;;;;;12.19;100.00;95028.53;6097256;23;20192;-84
2022/12/23 09:20:12;;;;;;;0.67;0.67;;;;;;;12.20;100.00;95016.41;6096733;23;20821;-83
2022/12/23 09:22:39;;;;;;;1.43;0.80;;;;;;;12.27;100.00;95017.22;6096882;23;20180;-84
2022/12/23 09:25:07;;;;;;;0.57;0.57;;;;;;;12.33;100.00;95014.59;6097582;23;20187;-84
2022/12/23 09:27:33;;;;;;;0.60;0.60;;;;;;;12.25;100.00;95014.03;6096774;23;20180;-84
2022/12/23 09:30:00;;;;;;;0.70;0.70;;;;;;;12.30;100.00;95015.03;6097544;23;20280;-84
2022/12/23 09:32:26;;;;;;;0.80;0.60;;;;;;;12.29;100.00;95010.06;6097551;23;20650;-84
2022/12/23 09:34:53;;;;;;;0.87;0.70;;;;;;;12.32;100.00;95004.47;6097229;23;20183;-83
2022/12/23 09:37:19;;;;;;;0.90;0.80;;;;;;;12.34;100.00;95010.22;6097715;23;20185;-83
2022/12/23 09:39:45;;;;;;;1.70;0.70;;;;;;;12.31;100.00;95015.81;6097088;23;20211;-84
2022/12/23 09:42:28;;;;;;;0.70;0.60;;;;;;;12.28;100.00;94998.94;6097206;23;20184;-84
2022/12/23 09:45:11;;;;;;;1.17;0.80;;;;;;;12.22;100.00;95009.25;6096720;23;20582;-84
2022/12/23 09:47:40;;;;;;;1.47;0.77;;;;;;;12.27;100.00;95006.88;6097279;23;20168;-84
2022/12/23 09:50:18;;;;;;;0.50;0.50;;;;;;;12.33;100.00;95000.91;6096979;23;20255;-83
2022/12/23 09:52:54;;;;;;;0.60;0.60;;;;;;;12.32;100.00;95007.84;6096196;23;20160;-83
2022/12/23 09:55:23;;;;;;;1.40;0.60;;;;;;;12.34;100.00;95003.28;6097787;23;20227;-84
2022/12/23 09:57:59;;;;;;;0.60;0.60;;;;;;;12.34;100.00;94999.91;6096935;23;20669;-83
2022/12/23 10:00:34;;;;;;;1.10;0.60;;;;;;;12.42;100.00;94990.16;6097672;23;20542;-83
2022/12/23 10:03:13;;;;;;;0.60;0.60;;;;;;;12.53;100.00;94987.94;6097772;23;20171;-84
2022/12/23 10:05:46;;;;;;;0.73;0.60;;;;;;;12.47;100.00;94988.78;6097041;23;20634;-85
2022/12/23 10:08:18;;;;;;;1.80;0.60;;;;;;;12.42;100.00;94985.00;6096614;23;20223;-84
2022/12/23 10:10:48;;;;;;;0.50;0.50;;;;;;;12.38;100.00;94988.19;6097159;23;20197;-84
2022/12/23 10:13:25;;;;;;;1.40;0.70;;;;;;;12.46;100.00;94987.97;6097917;23;20161;-85
2022/12/23 10:15:54;;;;;;;0.50;0.50;;;;;;;12.48;100.00;94980.03;6096766;23;20558;-83
2022/12/23 10:18:26;;;;;;;1.13;0.60;;;;;;;12.48;100.00;94983.41;6097825;23;20275;-83
2022/12/23 10:20:57;;;;;;;1.13;0.50;;;;;;;12.51;100.00;94982.97;6097915;23;20203;-84
2022/12/23 10:23:31;;;;;;;1.37;1.27;;;;;;;12.54;100.00;94979.19;6097272;23;20885;-84
2022/12/23 10:25:57;;;;;;;0.77;0.77;;;;;;;12.50;100.00;94973.69;6099024;23;20192;-83
2022/12/23 10:28:25;;;;;;;2.03;0.70;;;;;;;12.51;100.00;94971.88;6097709;23;20180;-84
2022/12/23 10:31:02;;;;;;;0.87;0.60;;;;;;;12.50;100.00;94972.88;6098662;23;20200;-84
2022/12/23 10:33:37;;;;;;;0.80;0.80;;;;;;;12.45;100.00;94976.84;6098658;23;20171;-84
2022/12/23 10:36:10;;;;;;;0.60;0.60;;;;;;;12.53;100.00;94968.09;6097762;23;20533;-84
2022/12/23 10:38:49;;;;;;;0.63;0.63;;;;;;;12.53;100.00;94969.88;6097625;23;20161;-83
2022/12/23 10:41:26;;;;;;;0.50;0.50;;;;;;;12.51;100.00;94972.66;6097349;23;20677;-84
2022/12/23 10:44:14;;;;;;;0.67;0.67;;;;;;;12.51;100.00;94970.06;6097810;23;20165;-84
2022/12/23 10:46:52;;;;;;;0.50;0.50;;;;;;;12.45;100.00;94963.16;6097579;23;20176;-83
2022/12/23 10:49:30;;;;;;;1.30;0.70;;;;;;;12.37;100.00;94966.75;6098134;23;20167;-84
2022/12/23 10:51:59;;;;;;;0.63;0.63;;;;;;;12.31;100.00;94966.78;6098747;23;20674;-84
2022/12/23 10:54:30;;;;;;;0.77;0.70;;;;;;;12.35;100.00;94960.97;6098892;23;20603;-84
2022/12/23 10:56:57;;;;;;;0.63;0.63;;;;;;;12.36;100.00;94969.53;6098050;23;20235;-84
2022/12/23 10:59:27;;;;;;;0.70;0.70;;;;;;;12.28;100.00;94972.34;6097285;23;20200;-84
2022/12/23 11:02:01;;;;;;;0.73;0.70;;;;;;;12.31;100.00;94961.59;6097254;23;20165;-84
2022/12/23 11:04:34;;;;;;;0.70;0.70;;;;;;;12.35;100.00;94968.72;6098028;23;20168;-83
2022/12/23 11:07:02;;;;;;;0.80;0.80;;;;;;;12.36;100.00;94959.19;6097976;23;20160;-83
2022/12/23 11:09:37;;;;;;;0.80;0.70;;;;;;;12.37;100.00;94958.19;6097395;23;20196;-83
2022/12/23 11:12:06;;;;;;;2.87;0.80;;;;;;;12.42;100.00;94960.97;6097464;23;20164;-83
2022/12/23 11:14:38;;;;;;;1.20;1.00;;;;;;;12.41;100.00;94967.94;6095434;23;20177;-84
2022/12/23 11:17:17;;;;;;;1.13;1.00;;;;;;;12.44;100.00;94962.38;6094470;23;20168;-83
2022/12/23 11:19:43;;;;;;;1.63;0.80;;;;;;;12.43;100.00;94950.44;6094105;23;20631;-83
2022/12/23 11:22:22;;;;;;;1.40;0.90;;;;;;;12.41;100.00;94961.97;6092832;23;20184;-84
2022/12/23 11:24:48;;;;;;;0.93;0.93;;;;;;;12.47;100.00;94950.03;6094961;23;20165;-83
2022/12/23 11:27:15;;;;;;;1.10;1.00;;;;;;;12.47;100.00;94950.03;6093834;23;20184;-84
2022/12/23 11:29:49;;;;;;;1.33;1.07;;;;;;;12.40;100.00;94950.06;6093576;23;20247;-82
2022/12/23 11:32:20;;;;;;;2.23;1.03;;;;;;;12.41;100.00;94947.28;6094730;23;20164;-83
2022/12/23 11:34:48;;;;;;;1.23;1.00;;;;;;;12.43;100.00;94942.69;6093686;23;20232;-83
2022/12/23 11:37:25;;;;;;;1.47;1.00;;;;;;;12.48;100.00;94934.34;6094208;23;20180;-84
2022/12/23 11:39:52;;;;;;;1.70;0.80;;;;;;;12.47;100.00;94937.13;6094120;23;20208;-81
2022/12/23 11:42:26;;;;;;;1.20;1.10;;;;;;;12.40;100.00;94932.78;6093617;23;20208;-83
2022/12/23 11:44:55;;;;;;;0.87;0.70;;;;;;;12.43;100.00;94940.13;6094333;23;20165;-84
2022/12/23 11:47:29;;;;;;;0.80;0.80;;;;;;;12.44;100.00;94931.38;6094434;23;20235;-83
2022/12/23 11:49:57;;;;;;;1.83;1.00;;;;;;;12.52;100.00;94925.19;6094348;23;20262;-84
2022/12/23 11:52:25;;;;;;;1.10;1.00;;;;;;;12.53;100.00;94916.44;6094820;23;20187;-84
2022/12/23 11:54:54;;;;;;;0.90;0.80;;;;;;;12.54;100.00;94914.66;6094028;23;20184;-82
2022/12/23 11:57:23;;;;;;;0.70;0.70;;;;;;;12.50;100.00;94914.28;6095000;23;20184;-83
2022/12/23 11:59:55;;;;;;;1.17;0.90;;;;;;;12.55;100.00;94917.03;6090328;23;20335;-82
2022/12/23 12:02:34;;;;;;;0.80;0.80;;;;;;;12.51;100.00;94909.91;6083844;23;20172;-83
2022/12/23 12:05:04;;;;;;;0.70;0.70;;;;;;;12.54;100.00;94917.22;6094153;23;20164;-84
2022/12/23 12:07:32;;;;;;;0.80;0.60;;;;;;;12.58;100.00;94903.72;6094133;23;20531;-83
2022/12/23 12:10:01;;;;;;;0.83;0.70;;;;;;;12.65;100.00;94919.19;6095609;23;20200;-84
2022/12/23 12:12:28;;;;;;;1.67;1.10;;;;;;;12.68;100.00;94916.19;6095492;23;20607;-83
2022/12/23 12:14:58;;;;;;;1.70;0.70;;;;;;;12.62;100.00;94914.44;6095163;23;20187;-84
2022/12/23 12:17:30;;;;;;;0.90;0.70;;;;;;;12.59;100.00;94905.31;6094528;23;20177;-83
2022/12/23 12:20:03;;;;;;;0.50;0.50;;;;;;;12.58;100.00;94897.75;6094175;23;20212;-84
2022/12/23 12:22:35;;;;;;;0.70;0.70;;;;;;;12.60;100.00;94891.38;6093783;23;20210;-83
2022/12/23 12:25:12;;;;;;;0.70;0.60;;;;;;;12.61;100.00;94887.03;6093689;23;20176;-84
2022/12/23 12:27:41;;;;;;;0.70;0.60;;;;;;;12.51;100.00;94881.50;6093969;23;20168;-83
2022/12/23 12:30:15;;;;;;;0.60;0.60;;;;;;;12.51;100.00;94876.34;6094994;23;20227;-83
2022/12/23 12:32:51;;;;;;;0.50;0.50;;;;;;;12.49;100.00;94873.19;6094283;23;20168;-84
2022/12/23 12:35:22;;;;;;;0.50;0.50;;;;;;;12.42;100.00;94886.09;6095773;23;20163;-83
2022/12/23 12:37:55;;;;;;;0.70;0.70;;;;;;;12.48;100.00;94874.19;6093631;23;20165;-84
2022/12/23 12:40:28;;;;;;;1.13;0.60;;;;;;;12.42;100.00;94862.88;6094995;23;20271;-83
2022/12/23 12:42:59;;;;;;;0.70;0.70;;;;;;;12.44;100.00;94873.78;6095503;23;20167;-84
2022/12/23 12:45:31;;;;;;;0.80;0.80;;;;;;;12.47;100.00;94875.97;6095040;23;20164;-83
2022/12/23 12:48:13;;;;;;;0.63;0.60;;;;;;;12.39;100.00;94868.44;6093954;23;20487;-83
2022/12/23 12:50:45;;;;;;;0.60;0.60;;;;;;;12.40;100.00;94865.66;6094484;23;20208;-83
2022/12/23 12:53:15;;;;;;;1.27;0.93;;;;;;;12.41;100.00;94869.03;6094465;23;20243;-83
2022/12/23 12:55:47;;;;;;;2.00;0.80;;;;;;;12.36;100.00;94864.47;6093578;23;20172;-83
2022/12/23 12:58:21;;;;;;;1.17;0.70;;;;;;;12.41;100.00;94856.91;6094918;23;20223;-83
2022/12/23 13:01:00;;;;;;;1.53;0.90;;;;;;;12.36;100.00;94864.47;6094962;23;20232;-83
2022/12/23 13:03:49;;;;;;;0.60;0.60;;;;;;;12.26;100.00;94861.56;6095193;23;20165;-84
2022/12/23 13:06:24;;;;;;;0.70;0.60;;;;;;;12.26;100.00;94871.88;6094736;23;20160;-83
2022/12/23 13:09:02;;;;;;;0.80;0.60;;;;;;;12.24;100.00;94865.31;6094221;23;20183;-83
2022/12/23 13:11:39;;;;;;;1.07;0.80;;;;;;;12.18;100.00;94853.22;6093921;23;20197;-83
2022/12/23 13:14:09;;;;;;;0.60;0.60;;;;;;;12.18;100.00;94842.91;6094817;23;20165;-83
2022/12/23 13:16:45;;;;;;;0.60;0.60;;;;;;;12.16;100.00;94850.06;6094907;23;20635;-83
2022/12/23 13:19:25;;;;;;;0.87;0.80;;;;;;;12.08;100.00;94848.50;6094838;23;20164;-82
2022/12/23 13:22:01;;;;;;;1.23;0.90;;;;;;;12.17;100.00;94846.47;6093997;23;20255;-82
2022/12/23 13:24:36;;;;;;;1.90;0.70;;;;;;;12.13;100.00;94845.31;6094876;23;20183;-83
2022/12/23 13:27:11;;;;;;;0.77;0.77;;;;;;;12.20;100.00;94836.53;6095209;23;20164;-83
2022/12/23 13:30:10;;;;;;;0.60;0.60;;;;;;;12.15;100.00;94833.00;6093966;23;20195;-83
2022/12/23 13:32:50;;;;;;;3.53;0.90;;;;;;;12.11;100.00;94845.53;6094814;23;20192;-83
2022/12/23 13:35:32;;;;;;;0.80;0.80;;;;;;;12.12;100.00;94833.41;6095642;23;20160;-84
2022/12/23 13:38:08;;;;;;;1.53;0.90;;;;;;;12.08;100.00;94836.41;6095403;23;20220;-84
2022/12/23 13:40:44;;;;;;;0.97;0.80;;;;;;;12.15;100.00;94833.78;6095576;23;20252;-83
2022/12/23 13:43:14;;;;;;;0.80;0.80;;;;;;;12.15;100.00;94840.72;6095834;23;20214;-83
2022/12/23 13:45:42;;;;;;;1.87;0.90;;;;;;;12.16;100.00;94835.38;6096515;23;20666;-83
2022/12/23 13:48:27;;;;;;;0.77;0.77;;;;;;;12.16;100.00;94834.56;6095554;23;20184;-83
2022/12/23 13:51:03;;;;;;;1.33;1.00;;;;;;;12.11;100.00;94840.38;6096145;23;20196;-83
2022/12/23 13:53:41;;;;;;;2.07;0.87;;;;;;;12.06;100.00;94840.97;6095710;23;20606;-83
2022/12/23 13:56:18;;;;;;;1.23;0.80;;;;;;;12.12;100.00;94839.38;6096799;23;20160;-83
2022/12/23 13:58:48;;;;;;;0.70;0.70;;;;;;;12.17;100.00;94831.00;6095978;23;20231;-83
2022/12/23 14:01:35;;;;;;;1.00;0.90;;;;;;;12.19;100.00;94827.22;6096062;23;20200;-82
2022/12/23 14:04:31;;;;;;;1.00;0.90;;;;;;;12.17;100.00;94821.47;6095266;23;20176;-83
2022/12/23 14:07:01;;;;;;;0.80;0.80;;;;;;;12.13;100.00;94825.44;6094555;23;20185;-82
2022/12/23 14:09:31;;;;;;;1.77;1.00;;;;;;;12.06;100.00;94822.13;6092989;23;20179;-83
2022/12/23 14:12:08;;;;;;;0.90;0.80;;;;;;;12.04;100.00;94818.94;6095577;23;20184;-84
2022/12/23 14:14:34;;;;;;;1.07;0.97;;;;;;;12.01;100.00;94819.34;6095569;23;20167;-83
2022/12/23 14:17:07;;;;;;;1.57;1.03;;;;;;;12.07;100.00;94816.75;6095945;23;20183;-83
2022/12/23 14:19:57;;;;;;;1.60;1.10;;;;;;;12.06;100.00;94820.34;6095610;23;20202;-84
2022/12/23 14:22:41;;;;;;;1.60;1.20;;;;;;;12.02;100.00;94815.78;6094626;23;20192;-84
2022/12/23 14:25:32;;;;;;;1.20;1.10;;;;;;;11.96;100.00;94816.59;6094493;23;20191;-83
2022/12/23 14:28:08;;;;;;;1.30;1.20;;;;;;;11.98;100.00;94823.13;6094860;23;20164;-83
2022/12/23 14:30:37;;;;;;;1.00;0.90;;;;;;;12.00;100.00;94815.19;6095829;23;20196;-82
2022/12/23 14:33:15;;;;;;;0.90;0.90;;;;;;;11.97;100.00;94824.13;6095521;23;20180;-82
2022/12/23 14:35:57;;;;;;;0.73;0.73;;;;;;;11.88;100.00;94812.47;6095370;23;20658;-84
2022/12/23 14:38:27;;;;;;;1.23;0.90;;;;;;;11.94;100.00;94803.88;6095137;23;20176;-84
2022/12/23 14:41:25;;;;;;;1.30;0.87;;;;;;;11.98;100.00;94797.31;6094509;23;20227;-84
2022/12/23 14:43:58;;;;;;;0.73;0.73;;;;;;;11.96;100.00;94804.47;6095379;23;20180;-81
2022/12/23 14:46:55;;;;;;;0.73;0.73;;;;;;;11.96;100.00;94789.00;6095209;23;20184;-83
2022/12/23 14:49:37;;;;;;;0.80;0.80;;;;;;;11.93;100.00;94791.97;6091902;23;20650;-82
2022/12/23 14:52:41;;;;;;;0.93;0.77;;;;;;;11.97;100.00;94790.59;6093357;23;20192;-84
2022/12/23 14:55:44;;;;;;;1.63;0.90;;;;;;;11.98;100.00;94787.00;6094664;23;20183;-82
2022/12/23 14:58:35;;;;;;;1.30;1.20;;;;;;;12.00;100.00;94787.59;6092743;23;20220;-84
2022/12/23 15:01:11;;;;;;;2.10;1.20;;;;;;;11.92;100.00;94784.47;6095107;23;20231;-83
2022/12/23 15:03:45;;;;;;;1.57;1.17;;;;;;;11.89;100.00;94788.25;6094150;23;20639;-83
2022/12/23 15:06:18;;;;;;;1.77;1.37;;;;;;;11.82;100.00;94784.88;6094747;23;20187;-83
2022/12/23 15:08:47;;;;;;;1.10;1.00;;;;;;;11.77;100.00;94782.13;6094205;23;20164;-83
2022/12/23 15:11:21;;;;;;;1.87;1.10;;;;;;;11.78;100.00;94791.44;6095431;23;20538;-82
2022/12/23 15:13:50;;;;;;;1.13;1.00;;;;;;;11.75;100.00;94791.81;6095039;23;20224;-83
2022/12/23 15:16:18;;;;;;;1.47;1.13;;;;;;;11.71;100.00;94785.50;6095441;23;20187;-84
2022/12/23 15:18:55;;;;;;;1.20;1.10;;;;;;;11.68;100.00;94778.97;6094021;23;20180;-83
2022/12/23 15:21:28;;;;;;;1.20;1.10;;;;;;;11.75;100.00;94784.88;6094209;23;20239;-84
2022/12/23 15:23:54;;;;;;;1.20;1.10;;;;;;;11.64;100.00;94787.28;6095069;23;20161;-82
2022/12/23 15:26:26;;;;;;;1.23;1.00;;;;;;;11.70;100.00;94786.50;6095727;23;20233;-84
2022/12/23 15:28:53;;;;;;;1.33;1.00;;;;;;;11.70;100.00;94787.28;6094406;23;20489;-82
2022/12/23 15:31:26;;;;;;;1.73;1.10;;;;;;;11.69;100.00;94787.50;6094479;23;20200;-83
2022/12/23 15:33:53;;;;;;;1.47;1.10;;;;;;;11.68;100.00;94783.31;6095105;23;20153;-83
2022/12/23 15:36:25;;;;;;;1.40;1.30;;;;;;;11.69;100.00;94787.50;6095991;23;20180;-83
2022/12/23 15:38:52;;;;;;;1.47;1.20;;;;;;;11.71;100.00;94788.88;6094094;23;20168;-84
2022/12/23 15:41:21;;;;;;;1.30;1.20;;;;;;;11.69;100.00;94788.28;6095737;23;20537;-83
2022/12/23 15:43:49;;;;;;;1.63;1.23;;;;;;;11.68;100.00;94784.13;6095206;23;20235;-83
2022/12/23 15:46:18;;;;;;;1.40;1.07;;;;;;;11.67;100.00;94784.31;6094505;23;20364;-84
2022/12/23 15:48:46;;;;;;;1.23;1.10;;;;;;;11.72;100.00;94790.47;6094411;23;20199;-84
2022/12/23 15:51:16;;;;;;;1.20;1.10;;;;;;;11.77;100.00;94784.69;6094449;23;20200;-84
2022/12/23 15:53:45;;;;;;;1.40;1.30;;;;;;;11.72;100.00;94785.31;6094347;23;20522;-82
2022/12/23 15:56:21;;;;;;;1.40;1.13;;;;;;;11.69;100.00;94785.69;6094540;23;20191;-82
2022/12/23 15:58:50;;;;;;;1.20;1.10;;;;;;;11.65;100.00;94783.72;6094107;23;20862;-83
2022/12/23 16:01:18;;;;;;;1.40;1.00;;;;;;;11.66;100.00;94778.38;6094465;23;20201;-83
2022/12/23 16:03:51;;;;;;;2.23;1.40;;;;;;;11.72;100.00;94784.50;6094105;23;20176;-82
2022/12/23 16:06:20;;;;;;;1.73;1.40;;;;;;;11.73;100.00;94781.72;6094790;23;20192;-83
2022/12/23 16:08:56;;;;;;;1.30;1.10;;;;;;;11.74;100.00;94779.91;6094872;23;20184;-84
2022/12/23 16:11:22;;;;;;;1.00;1.00;;;;;;;11.75;100.00;94779.72;6094115;23;20202;-83
2022/12/23 16:14:01;;;;;;;1.20;1.10;;;;;;;11.74;100.00;94777.34;6095128;23;20514;-84
2022/12/23 16:16:32;;;;;;;1.30;1.20;;;;;;;11.77;100.00;94779.53;6092482;23;20263;-83
2022/12/23 16:19:02;;;;;;;1.30;1.20;;;;;;;11.75;100.00;94777.13;6094065;23;20157;-83
2022/12/23 16:21:30;;;;;;;1.13;1.03;;;;;;;11.77;100.00;94774.38;6065540;23;20213;-83
2022/12/23 16:23:58;;;;;;;1.10;1.00;;;;;;;11.83;100.00;94763.25;6092278;23;20657;-83
2022/12/23 16:26:25;;;;;;;1.00;0.90;;;;;;;11.83;100.00;94773.56;6093379;23;20161;-82
2022/12/23 16:28:57;;;;;;;1.17;1.00;;;;;;;11.85;100.00;94765.63;6092699;23;20180;-81
2022/12/23 16:31:25;;;;;;;1.13;0.97;;;;;;;11.82;100.00;94773.78;6092983;23;20668;-83
2022/12/23 16:33:55;;;;;;;1.20;1.10;;;;;;;11.75;100.00;94771.19;6092659;23;20184;-83
2022/12/23 16:36:33;;;;;;;0.80;0.80;;;;;;;11.76;100.00;94767.63;6092768;23;20275;-81
2022/12/23 16:39:02;;;;;;;1.30;0.97;;;;;;;11.74;100.00;94780.72;6092347;23;20164;-82
2022/12/23 16:41:28;;;;;;;0.80;0.80;;;;;;;11.73;100.00;94768.84;6093157;23;20204;-83
2022/12/23 16:43:54;;;;;;;0.60;0.60;;;;;;;11.77;100.00;94779.53;6092744;23;20180;-82
2022/12/23 16:46:22;;;;;;;1.67;1.40;;;;;;;11.85;100.00;94781.91;6093216;23;20180;-82